Time;durP1;ratioP1;P1;durP2;ratioP2;P2;SDS_P1;SDS_P2;PMS_P1;PMS_P2;Temp;Humidity;BMP_temperature;BMP_pressure;BME280_temperature;BME280_humidity;BME280_pressure;Samples;Min_cycle;Max_cycle;Signal;HPM_P1;HPM_P2
2022/10/06 00:00:33;;;;;;;0.10;0.10;;;;;;;12.93;100.00;102061.34;5034819;28;20111;-74
2022/10/06 00:02:59;;;;;;;0.10;0.10;;;;;;;12.79;100.00;102054.19;5015887;28;20424;-74
2022/10/06 00:05:24;;;;;;;0.10;0.10;;;;;;;12.81;100.00;102057.66;5018424;28;20479;-71
2022/10/06 00:07:49;;;;;;;0.10;0.10;;;;;;;12.69;99.77;102059.34;5032918;28;20133;-71
2022/10/06 00:10:15;;;;;;;0.10;0.10;;;;;;;12.78;100.00;102063.25;5021295;28;20086;-71
2022/10/06 00:12:46;;;;;;;0.10;0.10;;;;;;;12.84;99.94;102089.78;5038966;28;20455;-72
2022/10/06 00:15:16;;;;;;;0.10;0.10;;;;;;;12.86;99.30;102098.59;5023636;28;20498;-73
2022/10/06 00:17:41;;;;;;;0.00;0.00;;;;;;;12.79;98.60;102107.22;5041394;28;20037;-73
2022/10/06 00:20:07;;;;;;;0.03;0.03;;;;;;;12.80;99.21;102109.81;5045847;28;20478;-73
2022/10/06 00:22:37;;;;;;;0.00;0.00;;;;;;;12.69;98.25;102097.06;5044574;28;20025;-72
2022/10/06 00:25:03;;;;;;;0.10;0.10;;;;;;;12.60;98.14;102100.38;5043454;28;20028;-73
2022/10/06 00:27:36;;;;;;;0.10;0.10;;;;;;;12.70;98.36;102114.09;5047305;28;20032;-72
2022/10/06 00:30:03;;;;;;;0.00;0.00;;;;;;;12.64;97.62;102122.56;5036097;28;20125;-73
2022/10/06 00:32:29;;;;;;;0.10;0.10;;;;;;;12.56;97.53;102128.47;5014913;28;20052;-74
2022/10/06 00:34:56;;;;;;;0.10;0.10;;;;;;;12.63;97.61;102128.91;5037031;28;20120;-72
2022/10/06 00:37:21;;;;;;;0.10;0.10;;;;;;;12.58;97.32;102132.78;5037457;28;20060;-72
2022/10/06 00:39:47;;;;;;;0.10;0.10;;;;;;;12.36;98.14;102110.91;5037287;28;20428;-72
2022/10/06 00:42:23;;;;;;;0.10;0.10;;;;;;;12.48;98.27;102136.19;5036837;28;20116;-74
2022/10/06 00:44:49;;;;;;;0.00;0.00;;;;;;;12.49;98.11;102146.88;5031788;28;20037;-72
2022/10/06 00:47:14;;;;;;;0.10;0.10;;;;;;;12.33;98.06;102121.88;5033158;28;20071;-73
2022/10/06 00:49:40;;;;;;;0.10;0.10;;;;;;;12.38;98.70;102149.38;5037071;28;20045;-72
2022/10/06 00:52:13;;;;;;;0.10;0.10;;;;;;;12.28;98.83;102132.97;5030214;28;20035;-73
2022/10/06 00:54:39;;;;;;;0.10;0.10;;;;;;;12.28;99.09;102127.56;5015870;28;20029;-73
2022/10/06 00:57:04;;;;;;;0.10;0.10;;;;;;;12.38;99.23;102160.16;5036529;28;20029;-72
2022/10/06 00:59:30;;;;;;;0.10;0.10;;;;;;;12.32;99.03;102149.78;5031912;28;20439;-71
2022/10/06 01:02:01;;;;;;;0.10;0.10;;;;;;;12.41;98.90;102170.75;5037809;28;20039;-73
2022/10/06 01:04:30;;;;;;;0.10;0.10;;;;;;;12.42;98.88;102175.16;5034934;28;20060;-71
2022/10/06 01:06:58;;;;;;;0.17;0.10;;;;;;;12.14;99.59;102145.50;5039248;28;20076;-72
2022/10/06 01:09:24;;;;;;;0.00;0.00;;;;;;;12.37;98.81;102179.97;5032092;28;20410;-71
2022/10/06 01:11:51;;;;;;;0.10;0.10;;;;;;;12.38;98.84;102190.66;5021746;28;20029;-72
2022/10/06 01:14:18;;;;;;;0.10;0.10;;;;;;;12.36;99.23;102186.31;5039709;28;20032;-72
2022/10/06 01:16:47;;;;;;;0.10;0.10;;;;;;;12.41;98.29;102197.69;5034956;28;20056;-72
2022/10/06 01:19:23;;;;;;;0.10;0.10;;;;;;;12.26;98.13;102175.28;5033106;28;20029;-73
2022/10/06 01:21:50;;;;;;;0.10;0.10;;;;;;;12.32;98.42;102200.94;5031216;28;20051;-73
2022/10/06 01:24:16;;;;;;;0.10;0.10;;;;;;;12.11;97.97;102179.81;5035000;28;20100;-73
2022/10/06 01:26:43;;;;;;;0.10;0.10;;;;;;;12.18;97.87;102197.31;5037780;28;20033;-72
2022/10/06 01:29:09;;;;;;;0.10;0.10;;;;;;;12.36;97.24;102211.44;5031886;28;20048;-72
2022/10/06 01:31:34;;;;;;;0.10;0.10;;;;;;;12.28;96.88;102222.72;5023569;28;20029;-72
2022/10/06 01:33:59;;;;;;;0.08;0.08;;;;;;;12.29;96.66;102226.25;5037890;28;20031;-73
2022/10/06 01:36:25;;;;;;;0.10;0.10;;;;;;;12.22;97.14;102217.72;5042624;28;20067;-72
2022/10/06 01:38:50;;;;;;;0.10;0.10;;;;;;;12.11;96.97;102210.31;5041953;28;20029;-73
2022/10/06 01:41:15;;;;;;;0.10;0.10;;;;;;;12.05;96.58;102210.69;5039269;28;20029;-73
2022/10/06 01:43:41;;;;;;;0.10;0.10;;;;;;;12.02;96.72;102226.16;5042241;28;20037;-72
2022/10/06 01:46:06;;;;;;;0.45;0.20;;;;;;;12.00;96.75;102237.91;5035691;28;20033;-73
2022/10/06 01:48:34;;;;;;;0.10;0.10;;;;;;;11.84;97.66;102240.63;5038845;28;20124;-72
2022/10/06 01:50:59;;;;;;;0.10;0.10;;;;;;;11.73;98.01;102204.56;5036951;28;20116;-74
2022/10/06 01:53:25;;;;;;;0.10;0.10;;;;;;;11.96;96.92;102239.00;5032099;28;20112;-72
2022/10/06 01:55:50;;;;;;;0.10;0.10;;;;;;;12.05;96.39;102248.38;5039138;28;20474;-72
2022/10/06 01:58:15;;;;;;;0.10;0.10;;;;;;;12.07;96.89;102251.84;5032986;28;20032;-72
2022/10/06 02:00:41;;;;;;;0.10;0.10;;;;;;;11.95;96.32;102233.69;5033141;28;20099;-73
2022/10/06 02:03:06;;;;;;;0.10;0.10;;;;;;;11.91;97.18;102257.25;5041005;28;20112;-72
2022/10/06 02:05:32;;;;;;;0.10;0.10;;;;;;;11.71;97.20;102226.16;5017038;28;20045;-72
2022/10/06 02:07:57;;;;;;;0.10;0.10;;;;;;;11.91;97.39;102265.31;5040542;28;20459;-74
2022/10/06 02:10:23;;;;;;;0.10;0.10;;;;;;;11.90;98.21;102260.91;5033952;28;20039;-74
2022/10/06 02:12:52;;;;;;;0.10;0.10;;;;;;;11.91;97.35;102272.56;5014620;28;20029;-73
2022/10/06 02:15:19;;;;;;;0.10;0.10;;;;;;;11.89;97.83;102269.94;5036666;28;20036;-71
2022/10/06 02:17:44;;;;;;;0.10;0.10;;;;;;;11.79;98.02;102275.00;5031126;28;20808;-72
2022/10/06 02:20:09;;;;;;;0.10;0.10;;;;;;;11.62;98.35;102248.28;5009773;22;20058;-72
2022/10/06 02:22:39;;;;;;;0.10;0.10;;;;;;;11.85;98.20;102289.91;4980731;28;20022;-72
2022/10/06 02:25:05;;;;;;;0.10;0.10;;;;;;;11.90;97.75;102298.59;4975926;28;20480;-73
2022/10/06 02:27:31;;;;;;;0.10;0.10;;;;;;;11.93;97.47;102286.75;4999783;28;20125;-72
2022/10/06 02:29:56;;;;;;;0.00;0.00;;;;;;;11.67;97.38;102275.72;4989536;28;20113;-72
2022/10/06 02:32:21;;;;;;;0.00;0.00;;;;;;;11.87;97.25;102309.53;4990741;28;20034;-72
2022/10/06 02:34:47;;;;;;;0.10;0.10;;;;;;;11.81;97.24;102302.69;4967034;28;20036;-73
2022/10/06 02:37:14;;;;;;;0.10;0.10;;;;;;;11.74;97.80;102304.00;4988526;28;20029;-74
2022/10/06 02:39:39;;;;;;;0.10;0.10;;;;;;;11.67;97.61;102302.63;4980815;28;20034;-73
2022/10/06 02:42:05;;;;;;;0.10;0.10;;;;;;;11.74;98.00;102313.94;4980273;28;20073;-73
2022/10/06 02:44:30;;;;;;;0.10;0.10;;;;;;;11.67;97.81;102299.94;4973078;28;20125;-73
2022/10/06 02:46:55;;;;;;;0.10;0.10;;;;;;;11.72;97.08;102330.16;4966689;28;20061;-72
2022/10/06 02:49:21;;;;;;;0.10;0.10;;;;;;;11.77;97.42;102332.59;4975730;28;20461;-72
2022/10/06 02:51:46;;;;;;;0.10;0.10;;;;;;;11.65;97.49;102323.41;4986628;28;20038;-72
2022/10/06 02:54:11;;;;;;;0.03;0.03;;;;;;;11.52;97.54;102326.81;4977837;28;20054;-72
2022/10/06 02:56:37;;;;;;;0.10;0.10;;;;;;;11.60;98.47;102334.41;4978777;28;20026;-73
2022/10/06 02:59:02;;;;;;;0.10;0.10;;;;;;;11.47;98.21;102333.41;4979156;28;20073;-72
2022/10/06 03:01:28;;;;;;;0.10;0.10;;;;;;;11.39;98.54;102325.75;4963848;28;20380;-72
2022/10/06 03:03:53;;;;;;;0.10;0.10;;;;;;;11.23;98.86;102331.19;4982412;28;20026;-73
2022/10/06 03:06:24;;;;;;;0.10;0.10;;;;;;;11.45;99.15;102346.94;4986687;28;20026;-72
2022/10/06 03:08:58;;;;;;;0.05;0.05;;;;;;;11.37;99.03;102359.97;4980043;28;20093;-72
2022/10/06 03:11:28;;;;;;;0.10;0.10;;;;;;;11.42;99.11;102365.94;4981153;28;20068;-72
2022/10/06 03:13:54;;;;;;;0.10;0.10;;;;;;;11.36;99.07;102382.44;4979096;28;20026;-74
2022/10/06 03:16:22;;;;;;;0.10;0.10;;;;;;;11.35;99.49;102381.56;4979296;28;20361;-71
2022/10/06 03:18:48;;;;;;;0.10;0.10;;;;;;;11.11;99.50;102359.63;4987583;28;20492;-72
2022/10/06 03:21:15;;;;;;;0.10;0.10;;;;;;;11.16;99.18;102367.44;4984973;28;20030;-74
2022/10/06 03:23:44;;;;;;;0.10;0.10;;;;;;;11.22;99.07;102375.16;4979416;28;20065;-73
2022/10/06 03:26:10;;;;;;;0.10;0.10;;;;;;;11.29;98.80;102384.59;4981348;28;20113;-72
2022/10/06 03:28:36;;;;;;;0.10;0.10;;;;;;;10.99;99.99;102363.84;4978820;28;20034;-73
2022/10/06 03:31:02;;;;;;;0.10;0.10;;;;;;;11.23;99.26;102398.41;4978962;28;20116;-71
2022/10/06 03:33:28;;;;;;;0.10;0.10;;;;;;;11.13;99.08;102391.78;4975852;28;20022;-73
2022/10/06 03:36:05;;;;;;;0.10;0.10;;;;;;;10.99;98.98;102384.47;4992531;28;20027;-73
2022/10/06 03:38:31;;;;;;;0.10;0.10;;;;;;;11.05;99.32;102406.50;4976963;28;20028;-73
2022/10/06 03:41:07;;;;;;;0.10;0.10;;;;;;;11.03;99.27;102411.09;4978009;28;20023;-73
2022/10/06 03:43:33;;;;;;;0.10;0.10;;;;;;;10.93;99.66;102394.59;4979414;28;20026;-74
2022/10/06 03:46:02;;;;;;;0.10;0.10;;;;;;;10.97;100.00;102424.91;4983465;28;20825;-74
2022/10/06 03:48:32;;;;;;;0.10;0.10;;;;;;;10.81;100.00;102422.16;4983193;28;20058;-74
2022/10/06 03:51:22;;;;;;;0.10;0.10;;;;;;;10.57;100.00;102394.78;4986002;28;20468;-73
2022/10/06 03:53:49;;;;;;;0.10;0.10;;;;;;;10.55;100.00;102392.19;4995545;28;20614;-74
2022/10/06 03:56:17;;;;;;;0.10;0.10;;;;;;;10.54;100.00;102408.38;4987037;28;20104;-74
2022/10/06 03:58:44;;;;;;;0.10;0.10;;;;;;;10.62;100.00;102425.81;4985898;28;20572;-74
2022/10/06 04:01:12;;;;;;;0.10;0.10;;;;;;;10.80;100.00;102447.28;4990515;28;20067;-75
2022/10/06 04:03:37;;;;;;;0.08;0.08;;;;;;;10.59;100.00;102433.16;4989821;28;20057;-75
2022/10/06 04:06:05;;;;;;;0.10;0.10;;;;;;;10.58;100.00;102442.16;4990428;28;20456;-73
2022/10/06 04:08:31;;;;;;;0.10;0.10;;;;;;;10.56;100.00;102447.63;4985510;28;20030;-75
2022/10/06 04:11:04;;;;;;;0.10;0.10;;;;;;;10.28;100.00;102430.22;4984519;28;20025;-75
2022/10/06 04:13:29;;;;;;;0.10;0.10;;;;;;;10.55;100.00;102459.31;4983036;28;20058;-74
2022/10/06 04:15:55;;;;;;;0.10;0.10;;;;;;;10.53;100.00;102463.91;4988610;28;20512;-74
2022/10/06 04:18:20;;;;;;;0.20;0.20;;;;;;;10.41;100.00;102469.91;4985650;28;20445;-74
2022/10/06 04:20:46;;;;;;;0.10;0.10;;;;;;;10.39;100.00;102450.31;4987681;28;20030;-74
2022/10/06 04:23:11;;;;;;;0.10;0.10;;;;;;;10.10;100.00;102433.81;4986456;28;20042;-74
2022/10/06 04:25:36;;;;;;;0.13;0.13;;;;;;;10.45;100.00;102474.16;4986248;28;20066;-73
2022/10/06 04:28:02;;;;;;;0.10;0.10;;;;;;;10.32;100.00;102474.78;4969574;28;20026;-74
2022/10/06 04:30:27;;;;;;;0.10;0.10;;;;;;;10.27;100.00;102449.97;4982696;28;20113;-73
2022/10/06 04:32:53;;;;;;;0.10;0.10;;;;;;;10.34;100.00;102490.78;4989170;28;20023;-73
2022/10/06 04:35:18;;;;;;;0.10;0.10;;;;;;;9.97;100.00;102437.16;4989139;28;20507;-74
2022/10/06 04:37:43;;;;;;;0.20;0.20;;;;;;;10.30;100.00;102491.88;4986441;28;20038;-73
2022/10/06 04:40:09;;;;;;;0.10;0.10;;;;;;;10.29;100.00;102491.03;4971824;28;20041;-74
2022/10/06 04:42:35;;;;;;;0.10;0.10;;;;;;;10.14;100.00;102481.94;4970394;28;20034;-74
2022/10/06 04:45:01;;;;;;;0.10;0.10;;;;;;;10.18;100.00;102478.16;4968687;28;20037;-74
2022/10/06 04:47:26;;;;;;;0.10;0.10;;;;;;;10.26;100.00;102477.75;4968938;28;20030;-75
2022/10/06 04:49:51;;;;;;;0.20;0.20;;;;;;;10.23;100.00;102512.81;4972514;28;20030;-74
2022/10/06 04:52:17;;;;;;;0.10;0.10;;;;;;;10.08;100.00;102479.53;4988784;28;20109;-73
2022/10/06 04:54:42;;;;;;;0.10;0.10;;;;;;;10.16;100.00;102514.94;4972044;28;20045;-74
2022/10/06 04:57:07;;;;;;;0.10;0.10;;;;;;;10.11;100.00;102516.97;4967738;28;20030;-72
2022/10/06 05:02:17;;;;;;;0.10;0.10;;;;;;;10.02;100.00;102496.81;4990878;28;20088;-75
2022/10/06 05:04:43;;;;;;;0.10;0.10;;;;;;;9.94;100.00;102504.38;4989786;28;20031;-73
2022/10/06 05:07:09;;;;;;;0.10;0.10;;;;;;;10.14;100.00;102527.56;4991722;28;20096;-73
2022/10/06 05:09:34;;;;;;;0.10;0.10;;;;;;;9.97;100.00;102523.00;4994205;28;20427;-73
2022/10/06 05:11:59;;;;;;;0.10;0.10;;;;;;;10.00;100.00;102517.50;4993196;28;20066;-74
2022/10/06 05:14:25;;;;;;;0.10;0.10;;;;;;;9.98;100.00;102527.44;4970825;28;20033;-73
2022/10/06 05:16:50;;;;;;;0.20;0.20;;;;;;;9.97;100.00;102544.47;4989055;28;20035;-72
2022/10/06 05:19:15;;;;;;;0.10;0.10;;;;;;;9.84;100.00;102530.78;4986612;28;20030;-73
2022/10/06 05:21:41;;;;;;;0.20;0.20;;;;;;;9.87;100.00;102530.63;4987911;28;20042;-73
2022/10/06 05:24:06;;;;;;;0.15;0.15;;;;;;;9.89;100.00;102549.34;4977958;28;20208;-72
2022/10/06 05:26:34;;;;;;;0.10;0.10;;;;;;;9.92;100.00;102583.22;4973151;28;20034;-72
2022/10/06 05:29:00;;;;;;;0.10;0.10;;;;;;;9.93;100.00;102576.91;4971335;28;20113;-73
2022/10/06 05:31:27;;;;;;;0.10;0.10;;;;;;;9.83;100.00;102574.66;4969710;28;20117;-73
2022/10/06 05:33:53;;;;;;;0.10;0.10;;;;;;;9.68;100.00;102552.09;4969559;28;20488;-73
2022/10/06 05:36:21;;;;;;;0.10;0.10;;;;;;;9.68;100.00;102559.25;4965748;28;20055;-71
2022/10/06 05:38:47;;;;;;;0.10;0.10;;;;;;;9.85;100.00;102586.19;4986149;28;20054;-73
2022/10/06 05:41:21;;;;;;;0.10;0.10;;;;;;;9.90;100.00;102594.88;4982360;28;20062;-72
2022/10/06 05:43:47;;;;;;;0.15;0.15;;;;;;;9.63;100.00;102570.19;4983308;28;20027;-74
2022/10/06 05:46:16;;;;;;;0.10;0.10;;;;;;;9.73;100.00;102597.47;4984196;28;20037;-75
2022/10/06 05:48:45;;;;;;;0.20;0.20;;;;;;;9.71;100.00;102613.63;4967855;28;20082;-74
2022/10/06 05:51:10;;;;;;;0.15;0.15;;;;;;;9.56;100.00;102584.81;4982940;28;20054;-75
2022/10/06 05:53:36;;;;;;;0.20;0.20;;;;;;;9.79;100.00;102607.06;4985204;28;20066;-74
2022/10/06 05:56:22;;;;;;;0.10;0.10;;;;;;;9.77;100.00;102619.66;4982647;28;20038;-75
2022/10/06 05:58:50;;;;;;;0.10;0.10;;;;;;;9.66;100.00;102626.38;4980305;28;20089;-75
2022/10/06 06:01:18;;;;;;;0.15;0.15;;;;;;;9.57;100.00;102614.28;4964192;28;20437;-73
2022/10/06 06:03:51;;;;;;;0.20;0.20;;;;;;;9.53;100.00;102611.81;4986343;28;20499;-72
2022/10/06 06:06:24;;;;;;;0.10;0.10;;;;;;;9.65;100.00;102629.16;4983980;28;20080;-75
2022/10/06 06:09:06;;;;;;;0.10;0.10;;;;;;;9.65;100.00;102632.69;4976751;28;20393;-73
2022/10/06 06:11:32;;;;;;;0.20;0.20;;;;;;;9.76;100.00;102642.94;4974771;28;20065;-75
2022/10/06 06:13:59;;;;;;;0.10;0.10;;;;;;;9.60;100.00;102651.69;4992085;28;20033;-72
2022/10/06 06:16:25;;;;;;;0.10;0.10;;;;;;;9.64;100.00;102651.53;4985435;28;20037;-75
2022/10/06 06:18:50;;;;;;;0.10;0.10;;;;;;;9.45;100.00;102630.88;4993751;28;20031;-73
2022/10/06 06:21:16;;;;;;;0.10;0.10;;;;;;;9.56;100.00;102654.53;4976731;28;20026;-76
2022/10/06 06:23:45;;;;;;;0.10;0.10;;;;;;;9.49;100.00;102667.34;4983201;28;20642;-75
2022/10/06 06:26:13;;;;;;;0.10;0.10;;;;;;;9.51;100.00;102659.28;4984451;28;20077;-76
2022/10/06 06:28:39;;;;;;;0.20;0.20;;;;;;;9.66;100.00;102668.44;4983178;28;20469;-77
2022/10/06 06:31:09;;;;;;;0.20;0.20;;;;;;;9.51;100.00;102654.75;4986275;28;20053;-75
2022/10/06 06:33:36;;;;;;;0.13;0.13;;;;;;;9.49;100.00;102651.28;4973915;28;20018;-73
2022/10/06 06:36:03;;;;;;;0.10;0.10;;;;;;;9.65;100.00;102677.44;4992010;28;20644;-75
2022/10/06 06:38:30;;;;;;;0.10;0.10;;;;;;;9.70;100.00;102672.69;4984560;28;20033;-75
2022/10/06 06:40:55;;;;;;;0.22;0.22;;;;;;;9.69;100.00;102665.59;4979318;28;20413;-76
2022/10/06 06:43:21;;;;;;;0.10;0.10;;;;;;;9.59;100.00;102644.56;4976186;28;20060;-74
2022/10/06 06:45:46;;;;;;;0.10;0.10;;;;;;;9.74;100.00;102672.50;4970395;28;20038;-71
2022/10/06 06:48:14;;;;;;;0.10;0.10;;;;;;;9.79;100.00;102674.97;4978044;28;20022;-74
2022/10/06 06:50:39;;;;;;;0.20;0.20;;;;;;;9.83;100.00;102678.38;4977685;28;20551;-71
2022/10/06 06:53:05;;;;;;;0.20;0.20;;;;;;;9.80;100.00;102667.81;4977305;28;20045;-76
2022/10/06 06:55:30;;;;;;;0.10;0.10;;;;;;;10.07;100.00;102697.88;4982662;28;20126;-73
2022/10/06 06:57:55;;;;;;;0.10;0.10;;;;;;;10.15;100.00;102694.81;4976323;28;20030;-72
2022/10/06 07:00:22;;;;;;;0.20;0.20;;;;;;;10.08;100.00;102693.34;4983392;28;20034;-72
2022/10/06 07:02:57;;;;;;;0.20;0.20;;;;;;;10.15;100.00;102701.09;4978722;28;20023;-72
2022/10/06 07:05:22;;;;;;;0.10;0.10;;;;;;;10.17;100.00;102696.53;4972906;28;20038;-74
2022/10/06 07:07:48;;;;;;;0.20;0.20;;;;;;;10.29;100.00;102699.56;4967846;28;20034;-73
2022/10/06 07:10:13;;;;;;;0.10;0.10;;;;;;;10.38;100.00;102712.56;4976829;28;20036;-70
2022/10/06 07:12:38;;;;;;;0.10;0.10;;;;;;;10.44;100.00;102712.31;4987860;28;20018;-72
2022/10/06 07:26:02;;;;;;;0.20;0.20;;;;;;;10.66;100.00;102722.03;4979152;28;20627;-69
2022/10/06 07:28:29;;;;;;;0.20;0.20;;;;;;;10.80;100.00;102732.09;4981745;28;20034;-70
2022/10/06 07:30:55;;;;;;;0.20;0.20;;;;;;;10.98;100.00;102754.53;4982775;28;20093;-71
2022/10/06 07:33:20;;;;;;;0.13;0.13;;;;;;;11.06;99.80;102762.19;4981533;28;20050;-69
2022/10/06 07:35:45;;;;;;;0.10;0.10;;;;;;;10.93;99.69;102738.59;4981447;28;20149;-70
2022/10/06 07:38:11;;;;;;;0.10;0.10;;;;;;;11.25;99.28;102771.09;4979126;28;20026;-70
2022/10/06 07:40:36;;;;;;;0.13;0.13;;;;;;;11.24;100.00;102752.34;4975208;28;20366;-71
2022/10/06 07:43:02;;;;;;;0.20;0.20;;;;;;;11.43;98.40;102779.16;4978349;28;20026;-70
2022/10/06 07:45:37;;;;;;;0.10;0.10;;;;;;;11.53;98.28;102785.84;4974375;28;20085;-71
2022/10/06 07:48:06;;;;;;;0.10;0.10;;;;;;;11.58;98.25;102790.97;4951403;28;20794;-70
2022/10/06 07:50:32;;;;;;;0.10;0.10;;;;;;;11.83;97.50;102792.38;4967693;28;20112;-71
2022/10/06 07:53:00;;;;;;;0.10;0.10;;;;;;;11.76;96.33;102788.31;4973594;28;20528;-72
2022/10/06 07:55:25;;;;;;;0.10;0.10;;;;;;;11.81;95.87;102776.34;4973799;28;20097;-74
2022/10/06 07:57:51;;;;;;;0.10;0.10;;;;;;;12.06;94.57;102795.72;4986716;28;20030;-72
2022/10/06 08:00:19;;;;;;;0.20;0.20;;;;;;;12.00;94.40;102768.19;4989102;28;20073;-74
2022/10/06 08:02:44;;;;;;;0.10;0.10;;;;;;;12.01;93.57;102766.38;4979089;28;20074;-76
2022/10/06 08:05:09;;;;;;;0.10;0.10;;;;;;;12.22;94.11;102785.91;4965117;28;20444;-73
2022/10/06 08:07:35;;;;;;;0.20;0.20;;;;;;;12.51;92.91;102810.38;4966658;28;20082;-76
2022/10/06 08:10:00;;;;;;;0.10;0.10;;;;;;;12.65;92.42;102809.63;4974767;28;20034;-75
2022/10/06 08:12:31;;;;;;;0.10;0.10;;;;;;;12.63;91.19;102787.28;4974065;28;20460;-75
2022/10/06 08:15:00;;;;;;;0.10;0.10;;;;;;;12.83;90.86;102802.34;4977082;28;20030;-76
2022/10/06 08:17:26;;;;;;;0.10;0.10;;;;;;;13.07;90.31;102814.50;4984842;28;20022;-75
2022/10/06 08:19:53;;;;;;;0.13;0.13;;;;;;;13.23;89.59;102825.28;4969410;28;20042;-74
2022/10/06 08:22:18;;;;;;;0.10;0.10;;;;;;;13.19;88.86;102794.94;4979988;28;20031;-74
2022/10/06 08:24:44;;;;;;;0.10;0.10;;;;;;;13.36;87.01;102823.63;4975421;28;20073;-73
2022/10/06 08:27:09;;;;;;;0.10;0.10;;;;;;;13.22;87.94;102810.94;4973311;28;20031;-76
2022/10/06 08:29:34;;;;;;;0.10;0.10;;;;;;;13.35;89.34;102806.56;4978740;28;20104;-77
2022/10/06 08:32:00;;;;;;;0.10;0.10;;;;;;;13.34;87.57;102812.06;4974728;28;20104;-75
2022/10/06 08:34:25;;;;;;;0.10;0.10;;;;;;;13.73;87.52;102831.41;4963020;28;20018;-74
2022/10/06 08:36:51;;;;;;;0.10;0.10;;;;;;;13.55;85.86;102812.63;4976447;28;20827;-72
2022/10/06 08:39:17;;;;;;;0.10;0.10;;;;;;;13.73;85.72;102829.56;4968658;28;20622;-75
2022/10/06 08:41:49;;;;;;;0.10;0.10;;;;;;;13.86;84.00;102829.69;4971688;28;20109;-74
2022/10/06 08:44:20;;;;;;;0.10;0.10;;;;;;;13.75;83.17;102821.41;4984657;28;20035;-73
2022/10/06 08:47:12;;;;;;;0.10;0.10;;;;;;;14.13;83.59;102856.00;4982026;28;20443;-75
2022/10/06 08:49:39;;;;;;;0.10;0.10;;;;;;;14.03;83.62;102830.53;4982153;28;20465;-79
2022/10/06 08:52:16;;;;;;;0.10;0.10;;;;;;;14.20;82.09;102868.19;4977034;28;20037;-78
2022/10/06 08:55:06;;;;;;;0.10;0.10;;;;;;;14.42;81.84;102844.38;4979367;28;20034;-75
2022/10/06 08:57:40;;;;;;;0.10;0.10;;;;;;;14.55;79.53;102862.44;4962451;28;20141;-75
2022/10/06 09:00:11;;;;;;;0.10;0.10;;;;;;;14.50;81.62;102864.53;4996085;28;20049;-73
2022/10/06 09:02:42;;;;;;;0.20;0.20;;;;;;;14.45;79.50;102861.25;4978635;28;20116;-74
2022/10/06 09:05:08;;;;;;;0.10;0.10;;;;;;;14.55;81.63;102864.25;4982599;28;20072;-73
2022/10/06 09:08:00;;;;;;;0.10;0.10;;;;;;;14.64;78.37;102863.69;4987040;28;20034;-75
2022/10/06 09:10:48;;;;;;;0.10;0.10;;;;;;;14.88;79.77;102882.03;4976087;28;20463;-75
2022/10/06 09:13:20;;;;;;;0.10;0.10;;;;;;;14.76;78.24;102882.81;4986298;28;20026;-75
2022/10/06 09:15:49;;;;;;;0.10;0.10;;;;;;;14.99;79.44;102887.63;4986414;28;20049;-74
2022/10/06 09:18:37;;;;;;;0.10;0.10;;;;;;;15.22;77.31;102890.69;4976234;28;21334;-74
2022/10/06 09:21:05;;;;;;;0.10;0.10;;;;;;;15.35;79.25;102898.00;4985432;28;20476;-76
2022/10/06 09:23:49;;;;;;;0.10;0.10;;;;;;;15.24;76.11;102885.19;4982145;28;20030;-73
2022/10/06 09:26:16;;;;;;;0.10;0.10;;;;;;;15.14;77.84;102896.59;4985139;28;20034;-73
2022/10/06 09:28:45;;;;;;;0.20;0.20;;;;;;;15.21;75.18;102915.13;4983159;28;20034;-73
2022/10/06 09:31:43;;;;;;;0.10;0.10;;;;;;;15.16;78.89;102899.22;4982773;28;20469;-76
2022/10/06 09:34:33;;;;;;;0.10;0.10;;;;;;;14.99;74.50;102903.84;4984407;28;20039;-74
2022/10/06 09:37:11;;;;;;;0.10;0.10;;;;;;;15.26;76.19;102904.88;4983818;28;20053;-74
2022/10/06 09:39:39;;;;;;;0.10;0.10;;;;;;;14.99;73.81;102900.28;4978170;28;20572;-79
2022/10/06 09:42:22;;;;;;;0.10;0.10;;;;;;;15.22;73.95;102908.75;4981640;28;20140;-73
2022/10/06 09:45:00;;;;;;;0.10;0.10;;;;;;;15.47;74.03;102908.03;4998780;28;20030;-72
2022/10/06 09:47:30;;;;;;;0.10;0.10;;;;;;;15.83;71.11;102913.81;4982169;28;20026;-75
2022/10/06 09:50:13;;;;;;;0.00;0.00;;;;;;;16.27;73.19;102911.75;4981573;28;20081;-75
2022/10/06 09:52:57;;;;;;;0.00;0.00;;;;;;;16.55;71.70;102912.53;4978522;28;20060;-75
2022/10/06 09:55:26;;;;;;;0.00;0.00;;;;;;;16.12;69.41;102892.00;4983138;28;20083;-72
2022/10/06 09:57:55;;;;;;;0.10;0.10;;;;;;;16.33;69.50;102903.19;4980091;28;20528;-76
2022/10/06 10:00:30;;;;;;;0.10;0.10;;;;;;;16.55;69.11;102901.69;4980663;28;20476;-74
2022/10/06 10:03:04;;;;;;;0.10;0.10;;;;;;;16.40;69.15;102919.91;4980146;28;20034;-75
2022/10/06 10:05:32;;;;;;;0.10;0.10;;;;;;;15.96;69.52;102905.75;4982686;28;20052;-76
2022/10/06 10:08:08;;;;;;;0.10;0.10;;;;;;;15.86;72.39;102890.09;4996418;28;20031;-73
2022/10/06 10:10:35;;;;;;;0.00;0.00;;;;;;;16.18;69.29;102929.50;4982085;28;20065;-72
2022/10/06 10:13:01;;;;;;;0.10;0.10;;;;;;;16.69;66.65;102914.25;4986035;28;20030;-73
2022/10/06 10:15:37;;;;;;;0.10;0.10;;;;;;;17.11;66.03;102900.44;4981557;28;20140;-72
2022/10/06 10:18:12;;;;;;;0.10;0.10;;;;;;;17.61;63.25;102913.97;4992793;28;20034;-72
2022/10/06 10:20:54;;;;;;;0.10;0.10;;;;;;;17.78;66.19;102912.69;4981293;28;20025;-73
2022/10/06 10:23:28;;;;;;;0.10;0.10;;;;;;;17.08;61.14;102925.97;4974197;28;20077;-74
2022/10/06 10:25:57;;;;;;;0.00;0.00;;;;;;;17.98;62.23;102930.19;4978731;28;20033;-76
2022/10/06 10:28:33;;;;;;;0.10;0.10;;;;;;;18.32;59.48;102905.84;4979649;28;20472;-73
2022/10/06 10:31:13;;;;;;;0.10;0.10;;;;;;;18.84;56.39;102927.19;4980334;28;20391;-70
2022/10/06 10:33:44;;;;;;;0.10;0.10;;;;;;;19.05;55.24;102923.75;4973990;28;20440;-70
2022/10/06 10:36:11;;;;;;;0.00;0.00;;;;;;;18.62;54.94;102933.50;4980558;28;20080;-73
2022/10/06 10:38:41;;;;;;;0.10;0.10;;;;;;;17.95;58.87;102925.84;4982674;28;20552;-72
2022/10/06 10:41:12;;;;;;;0.00;0.00;;;;;;;17.90;58.83;102930.75;4978473;28;20034;-72
2022/10/06 10:43:51;;;;;;;0.00;0.00;;;;;;;17.68;56.64;102932.41;4983710;28;20018;-73
2022/10/06 10:46:44;;;;;;;0.05;0.05;;;;;;;17.28;57.60;102934.50;4978628;28;20061;-74
2022/10/06 10:49:26;;;;;;;0.00;0.00;;;;;;;17.02;59.13;102924.56;4992412;28;20022;-73
2022/10/06 10:51:55;;;;;;;0.13;0.13;;;;;;;16.94;60.30;102925.09;4983138;28;20038;-75
2022/10/06 10:54:47;;;;;;;0.10;0.10;;;;;;;16.69;60.82;102916.97;4994774;28;20841;-73
2022/10/06 10:57:15;;;;;;;0.10;0.10;;;;;;;16.78;61.75;102919.03;4980651;28;20069;-74
2022/10/06 10:59:55;;;;;;;0.10;0.10;;;;;;;16.70;61.96;102905.13;4976129;28;20026;-72
2022/10/06 11:02:21;;;;;;;0.10;0.10;;;;;;;16.93;63.58;102927.91;4975429;28;20026;-73
2022/10/06 11:04:51;;;;;;;0.10;0.10;;;;;;;17.50;60.24;102936.50;4980187;28;20026;-71
2022/10/06 11:07:41;;;;;;;0.00;0.00;;;;;;;17.66;59.56;102938.94;4979041;28;20033;-73
2022/10/06 11:10:12;;;;;;;0.10;0.10;;;;;;;18.88;54.56;102943.16;4971009;28;20027;-72
2022/10/06 11:12:55;;;;;;;0.10;0.10;;;;;;;20.00;51.45;102914.94;4998502;28;20439;-76
2022/10/06 11:15:59;;;;;;;0.00;0.00;;;;;;;20.56;50.29;102944.78;4985083;28;20137;-74
2022/10/06 11:18:57;;;;;;;0.10;0.10;;;;;;;20.58;52.07;102932.72;4904748;29;20036;-69
2022/10/06 11:21:30;;;;;;;0.10;0.10;;;;;;;21.22;48.73;102935.31;4905170;29;20050;-71
2022/10/06 11:24:28;;;;;;;0.13;0.13;;;;;;;21.70;48.83;102942.78;4963271;28;20532;-75
2022/10/06 11:27:07;;;;;;;0.00;0.00;;;;;;;21.65;48.78;102938.75;4996724;28;20026;-69
2022/10/06 11:30:06;;;;;;;0.10;0.10;;;;;;;21.76;44.79;102944.09;4994544;28;20045;-70
2022/10/06 11:33:00;;;;;;;0.20;0.10;;;;;;;21.04;46.43;102944.19;4979939;28;20058;-72
2022/10/06 11:35:27;;;;;;;0.10;0.10;;;;;;;22.27;44.94;102939.28;4976326;28;20034;-70
2022/10/06 11:38:04;;;;;;;0.10;0.10;;;;;;;22.53;44.51;102915.97;4971244;28;20038;-70
2022/10/06 11:40:56;;;;;;;0.10;0.10;;;;;;;21.49;45.67;102931.94;4982806;28;20026;-72
2022/10/06 11:43:53;;;;;;;0.10;0.10;;;;;;;20.73;47.37;102935.97;4982697;28;20042;-70
2022/10/06 11:46:44;;;;;;;0.00;0.00;;;;;;;21.40;46.16;102946.44;4974805;28;20039;-71
2022/10/06 11:49:28;;;;;;;0.00;0.00;;;;;;;20.15;48.96;102942.75;4981137;28;20030;-71